Smithwick, South Dakota
Current Conditions -  °F | °C
As of 1:53 AM on Monday 24 Nov 2014 (Local Time) from KCDR Reporting Station
Clear Clear  
Wind Chill: 14°   Ceiling: Unl
Heat Index: 26°   Visibility: 10mi
Dew Point: 18°   Wind: 15mph
Humidity: 71%   Direction: 270°W
Pressure: 29.78"   Gusts: NA
Location:  43.3°N, 103.22°W
Report Text: KCDR 240853Z AUTO 27013KT 10SM CLR M03/M08 A2978 RMK AO2 SLP114 T10331078 53000
Loading
Personal Weather Stations






























Interactive Weather Map New forecast layout! Learn more

10-Day Weather Forecast

Advertisements
Track Severe Weather on mobile